sensor_id;sensor_type;location;lat;lon;timestamp;P1;durP1;ratioP1;P2;durP2;ratioP2
52043;SDS011;38053;53.100;6.078;2023-09-30T00:02:15;22.17;;;5.47;;
52043;SDS011;38053;53.100;6.078;2023-09-30T00:04:41;21.88;;;4.75;;
52043;SDS011;38053;53.100;6.078;2023-09-30T00:07:08;17.85;;;5.32;;
52043;SDS011;38053;53.100;6.078;2023-09-30T00:09:34;26.80;;;5.40;;
52043;SDS011;38053;53.100;6.078;2023-09-30T00:12:00;19.15;;;5.03;;
52043;SDS011;38053;53.100;6.078;2023-09-30T00:14:26;19.55;;;6.65;;
52043;SDS011;38053;53.100;6.078;2023-09-30T00:16:53;22.27;;;7.68;;
52043;SDS011;38053;53.100;6.078;2023-09-30T00:19:19;18.38;;;5.53;;
52043;SDS011;38053;53.100;6.078;2023-09-30T00:21:47;25.92;;;5.85;;
52043;SDS011;38053;53.100;6.078;2023-09-30T00:24:13;18.27;;;6.50;;
52043;SDS011;38053;53.100;6.078;2023-09-30T00:26:39;21.85;;;5.95;;
52043;SDS011;38053;53.100;6.078;2023-09-30T00:29:05;25.85;;;6.40;;
52043;SDS011;38053;53.100;6.078;2023-09-30T00:31:31;21.30;;;5.53;;
52043;SDS011;38053;53.100;6.078;2023-09-30T00:33:57;21.77;;;5.22;;
52043;SDS011;38053;53.100;6.078;2023-09-30T00:36:23;21.10;;;5.65;;
52043;SDS011;38053;53.100;6.078;2023-09-30T00:38:48;21.15;;;6.45;;
52043;SDS011;38053;53.100;6.078;2023-09-30T00:41:14;21.10;;;5.82;;
52043;SDS011;38053;53.100;6.078;2023-09-30T00:43:40;16.30;;;4.38;;
52043;SDS011;38053;53.100;6.078;2023-09-30T00:48:55;13.40;;;4.75;;
52043;SDS011;38053;53.100;6.078;2023-09-30T00:51:23;19.30;;;5.95;;
52043;SDS011;38053;53.100;6.078;2023-09-30T00:53:54;16.55;;;5.45;;
52043;SDS011;38053;53.100;6.078;2023-09-30T00:56:24;21.98;;;5.22;;
52043;SDS011;38053;53.100;6.078;2023-09-30T00:58:52;22.13;;;5.18;;
52043;SDS011;38053;53.100;6.078;2023-09-30T01:01:19;18.38;;;7.20;;
52043;SDS011;38053;53.100;6.078;2023-09-30T01:03:46;21.33;;;4.60;;
52043;SDS011;38053;53.100;6.078;2023-09-30T01:06:12;17.83;;;5.05;;
52043;SDS011;38053;53.100;6.078;2023-09-30T01:08:38;21.67;;;5.97;;
52043;SDS011;38053;53.100;6.078;2023-09-30T01:11:04;25.85;;;7.03;;
52043;SDS011;38053;53.100;6.078;2023-09-30T01:13:34;17.13;;;5.30;;
52043;SDS011;38053;53.100;6.078;2023-09-30T01:16:05;19.40;;;6.10;;
52043;SDS011;38053;53.100;6.078;2023-09-30T01:18:36;23.83;;;6.28;;
52043;SDS011;38053;53.100;6.078;2023-09-30T01:21:03;21.98;;;6.43;;
52043;SDS011;38053;53.100;6.078;2023-09-30T01:23:30;17.67;;;5.90;;
52043;SDS011;38053;53.100;6.078;2023-09-30T01:25:56;16.52;;;4.97;;
52043;SDS011;38053;53.100;6.078;2023-09-30T01:28:22;16.92;;;5.65;;
52043;SDS011;38053;53.100;6.078;2023-09-30T01:30:48;16.33;;;6.03;;
52043;SDS011;38053;53.100;6.078;2023-09-30T01:33:14;18.30;;;5.35;;
52043;SDS011;38053;53.100;6.078;2023-09-30T01:35:44;18.23;;;5.47;;
52043;SDS011;38053;53.100;6.078;2023-09-30T01:38:10;14.95;;;5.43;;
52043;SDS011;38053;53.100;6.078;2023-09-30T01:40:37;16.05;;;6.03;;
52043;SDS011;38053;53.100;6.078;2023-09-30T01:43:03;16.27;;;5.25;;
52043;SDS011;38053;53.100;6.078;2023-09-30T01:45:29;24.77;;;5.63;;
52043;SDS011;38053;53.100;6.078;2023-09-30T01:47:55;21.33;;;5.47;;
52043;SDS011;38053;53.100;6.078;2023-09-30T01:50:20;15.77;;;6.00;;
52043;SDS011;38053;53.100;6.078;2023-09-30T01:52:46;18.90;;;5.85;;
52043;SDS011;38053;53.100;6.078;2023-09-30T01:55:12;17.23;;;4.40;;
52043;SDS011;38053;53.100;6.078;2023-09-30T01:57:38;23.05;;;5.63;;
52043;SDS011;38053;53.100;6.078;2023-09-30T02:00:04;16.55;;;4.32;;
52043;SDS011;38053;53.100;6.078;2023-09-30T02:02:34;16.55;;;5.20;;
52043;SDS011;38053;53.100;6.078;2023-09-30T02:05:00;9.80;;;3.53;;
52043;SDS011;38053;53.100;6.078;2023-09-30T02:07:26;17.00;;;3.65;;
52043;SDS011;38053;53.100;6.078;2023-09-30T02:09:51;16.20;;;3.65;;
52043;SDS011;38053;53.100;6.078;2023-09-30T02:12:20;11.73;;;4.72;;
52043;SDS011;38053;53.100;6.078;2023-09-30T02:14:47;13.88;;;4.82;;
52043;SDS011;38053;53.100;6.078;2023-09-30T02:17:13;15.77;;;3.97;;
52043;SDS011;38053;53.100;6.078;2023-09-30T02:19:40;17.65;;;4.40;;
52043;SDS011;38053;53.100;6.078;2023-09-30T02:22:06;11.88;;;3.30;;
52043;SDS011;38053;53.100;6.078;2023-09-30T02:24:33;13.80;;;4.30;;
52043;SDS011;38053;53.100;6.078;2023-09-30T02:27:02;12.88;;;3.75;;
52043;SDS011;38053;53.100;6.078;2023-09-30T02:29:27;11.25;;;3.80;;
52043;SDS011;38053;53.100;6.078;2023-09-30T02:31:55;13.07;;;3.83;;
52043;SDS011;38053;53.100;6.078;2023-09-30T02:34:20;17.17;;;4.38;;
52043;SDS011;38053;53.100;6.078;2023-09-30T02:36:48;18.88;;;4.55;;
52043;SDS011;38053;53.100;6.078;2023-09-30T02:39:17;15.27;;;3.83;;
52043;SDS011;38053;53.100;6.078;2023-09-30T02:41:44;11.70;;;4.10;;
52043;SDS011;38053;53.100;6.078;2023-09-30T02:44:10;16.05;;;4.22;;
52043;SDS011;38053;53.100;6.078;2023-09-30T02:46:36;15.38;;;4.35;;
52043;SDS011;38053;53.100;6.078;2023-09-30T02:49:04;14.07;;;3.67;;
52043;SDS011;38053;53.100;6.078;2023-09-30T02:51:29;20.15;;;4.90;;
52043;SDS011;38053;53.100;6.078;2023-09-30T02:53:55;15.98;;;3.75;;
52043;SDS011;38053;53.100;6.078;2023-09-30T02:56:24;15.63;;;4.55;;
52043;SDS011;38053;53.100;6.078;2023-09-30T02:58:54;15.05;;;4.15;;
52043;SDS011;38053;53.100;6.078;2023-09-30T03:01:20;8.27;;;3.92;;
52043;SDS011;38053;53.100;6.078;2023-09-30T03:03:46;15.43;;;4.40;;
52043;SDS011;38053;53.100;6.078;2023-09-30T03:06:12;13.82;;;4.47;;
52043;SDS011;38053;53.100;6.078;2023-09-30T03:08:39;12.18;;;3.75;;
52043;SDS011;38053;53.100;6.078;2023-09-30T03:11:15;12.02;;;3.88;;
52043;SDS011;38053;53.100;6.078;2023-09-30T03:13:41;25.30;;;4.07;;
52043;SDS011;38053;53.100;6.078;2023-09-30T03:16:10;14.90;;;5.80;;
52043;SDS011;38053;53.100;6.078;2023-09-30T03:18:36;15.20;;;4.22;;
52043;SDS011;38053;53.100;6.078;2023-09-30T03:21:02;22.88;;;4.70;;
52043;SDS011;38053;53.100;6.078;2023-09-30T03:23:37;17.40;;;3.85;;
52043;SDS011;38053;53.100;6.078;2023-09-30T03:26:05;15.45;;;4.28;;
52043;SDS011;38053;53.100;6.078;2023-09-30T03:28:36;18.35;;;4.80;;
52043;SDS011;38053;53.100;6.078;2023-09-30T03:31:07;17.58;;;4.07;;
52043;SDS011;38053;53.100;6.078;2023-09-30T03:33:33;13.90;;;4.82;;
52043;SDS011;38053;53.100;6.078;2023-09-30T03:36:00;21.27;;;4.45;;
52043;SDS011;38053;53.100;6.078;2023-09-30T03:38:26;12.80;;;3.55;;
52043;SDS011;38053;53.100;6.078;2023-09-30T03:40:52;17.35;;;4.80;;
52043;SDS011;38053;53.100;6.078;2023-09-30T03:43:19;15.18;;;4.75;;
52043;SDS011;38053;53.100;6.078;2023-09-30T03:45:48;17.15;;;4.50;;
52043;SDS011;38053;53.100;6.078;2023-09-30T03:48:15;22.85;;;5.53;;
52043;SDS011;38053;53.100;6.078;2023-09-30T03:50:43;18.02;;;4.85;;
52043;SDS011;38053;53.100;6.078;2023-09-30T03:53:10;15.40;;;4.60;;
52043;SDS011;38053;53.100;6.078;2023-09-30T03:55:39;21.17;;;5.82;;
52043;SDS011;38053;53.100;6.078;2023-09-30T03:58:05;22.02;;;4.97;;
52043;SDS011;38053;53.100;6.078;2023-09-30T04:00:31;28.23;;;7.43;;
52043;SDS011;38053;53.100;6.078;2023-09-30T04:02:57;19.15;;;5.88;;
52043;SDS011;38053;53.100;6.078;2023-09-30T04:05:25;27.60;;;5.97;;
52043;SDS011;38053;53.100;6.078;2023-09-30T04:07:58;21.42;;;6.45;;
52043;SDS011;38053;53.100;6.078;2023-09-30T04:10:23;18.73;;;6.75;;
52043;SDS011;38053;53.100;6.078;2023-09-30T04:12:50;12.95;;;6.60;;
52043;SDS011;38053;53.100;6.078;2023-09-30T04:15:17;17.60;;;6.43;;
52043;SDS011;38053;53.100;6.078;2023-09-30T04:17:43;16.25;;;7.00;;
52043;SDS011;38053;53.100;6.078;2023-09-30T04:20:10;18.48;;;6.53;;
52043;SDS011;38053;53.100;6.078;2023-09-30T04:22:45;15.85;;;6.38;;
52043;SDS011;38053;53.100;6.078;2023-09-30T04:25:14;16.00;;;6.95;;
52043;SDS011;38053;53.100;6.078;2023-09-30T04:27:42;19.40;;;6.53;;
52043;SDS011;38053;53.100;6.078;2023-09-30T04:30:08;18.63;;;6.32;;
52043;SDS011;38053;53.100;6.078;2023-09-30T04:32:39;15.70;;;6.78;;
52043;SDS011;38053;53.100;6.078;2023-09-30T04:35:04;20.25;;;6.85;;
52043;SDS011;38053;53.100;6.078;2023-09-30T04:37:31;19.75;;;7.15;;
52043;SDS011;38053;53.100;6.078;2023-09-30T04:39:57;20.75;;;8.40;;
52043;SDS011;38053;53.100;6.078;2023-09-30T04:42:23;28.98;;;8.55;;
52043;SDS011;38053;53.100;6.078;2023-09-30T04:44:51;19.40;;;7.80;;
52043;SDS011;38053;53.100;6.078;2023-09-30T04:47:17;20.40;;;7.75;;
52043;SDS011;38053;53.100;6.078;2023-09-30T04:49:44;21.63;;;7.95;;
52043;SDS011;38053;53.100;6.078;2023-09-30T04:52:10;25.85;;;8.35;;
52043;SDS011;38053;53.100;6.078;2023-09-30T04:54:36;31.05;;;10.02;;
52043;SDS011;38053;53.100;6.078;2023-09-30T04:57:02;29.60;;;9.32;;
52043;SDS011;38053;53.100;6.078;2023-09-30T04:59:28;19.05;;;8.27;;
52043;SDS011;38053;53.100;6.078;2023-09-30T05:01:54;22.75;;;10.25;;
52043;SDS011;38053;53.100;6.078;2023-09-30T05:04:21;17.50;;;8.77;;
52043;SDS011;38053;53.100;6.078;2023-09-30T05:06:49;25.63;;;8.82;;
52043;SDS011;38053;53.100;6.078;2023-09-30T05:09:15;22.48;;;8.48;;
52043;SDS011;38053;53.100;6.078;2023-09-30T05:11:41;17.65;;;8.73;;
52043;SDS011;38053;53.100;6.078;2023-09-30T05:14:06;22.75;;;8.85;;
52043;SDS011;38053;53.100;6.078;2023-09-30T05:16:33;26.05;;;9.80;;
52043;SDS011;38053;53.100;6.078;2023-09-30T05:18:59;21.63;;;9.20;;
52043;SDS011;38053;53.100;6.078;2023-09-30T05:21:29;25.00;;;9.10;;
52043;SDS011;38053;53.100;6.078;2023-09-30T05:23:55;22.08;;;9.05;;
52043;SDS011;38053;53.100;6.078;2023-09-30T05:26:21;20.73;;;9.60;;
52043;SDS011;38053;53.100;6.078;2023-09-30T05:28:47;26.50;;;9.55;;
52043;SDS011;38053;53.100;6.078;2023-09-30T05:31:15;30.17;;;10.15;;
52043;SDS011;38053;53.100;6.078;2023-09-30T05:33:41;29.00;;;10.40;;
52043;SDS011;38053;53.100;6.078;2023-09-30T05:36:07;25.33;;;10.93;;
52043;SDS011;38053;53.100;6.078;2023-09-30T05:38:33;24.05;;;10.95;;
52043;SDS011;38053;53.100;6.078;2023-09-30T05:40:59;21.88;;;10.27;;
52043;SDS011;38053;53.100;6.078;2023-09-30T05:43:29;32.33;;;11.18;;
52043;SDS011;38053;53.100;6.078;2023-09-30T05:45:55;22.02;;;9.82;;
52043;SDS011;38053;53.100;6.078;2023-09-30T05:48:21;30.88;;;12.18;;
52043;SDS011;38053;53.100;6.078;2023-09-30T05:50:47;26.75;;;11.27;;
52043;SDS011;38053;53.100;6.078;2023-09-30T05:53:12;28.30;;;11.02;;
52043;SDS011;38053;53.100;6.078;2023-09-30T05:55:39;31.08;;;11.18;;
52043;SDS011;38053;53.100;6.078;2023-09-30T05:58:14;27.95;;;11.18;;
52043;SDS011;38053;53.100;6.078;2023-09-30T06:00:44;27.83;;;10.95;;
52043;SDS011;38053;53.100;6.078;2023-09-30T06:03:10;22.83;;;10.68;;
52043;SDS011;38053;53.100;6.078;2023-09-30T06:05:42;27.77;;;11.73;;
52043;SDS011;38053;53.100;6.078;2023-09-30T06:08:09;30.35;;;12.63;;
52043;SDS011;38053;53.100;6.078;2023-09-30T06:10:41;31.38;;;11.40;;
52043;SDS011;38053;53.100;6.078;2023-09-30T06:13:08;25.92;;;11.20;;
52043;SDS011;38053;53.100;6.078;2023-09-30T06:15:38;29.88;;;14.43;;
52043;SDS011;38053;53.100;6.078;2023-09-30T06:18:05;27.88;;;11.85;;
52043;SDS011;38053;53.100;6.078;2023-09-30T06:20:31;31.25;;;11.98;;
52043;SDS011;38053;53.100;6.078;2023-09-30T06:22:58;25.05;;;12.45;;
52043;SDS011;38053;53.100;6.078;2023-09-30T06:25:27;26.25;;;12.13;;
52043;SDS011;38053;53.100;6.078;2023-09-30T06:27:55;26.52;;;12.65;;
52043;SDS011;38053;53.100;6.078;2023-09-30T06:30:23;27.88;;;11.32;;
52043;SDS011;38053;53.100;6.078;2023-09-30T06:32:58;30.00;;;12.07;;
52043;SDS011;38053;53.100;6.078;2023-09-30T06:35:33;25.38;;;12.85;;
52043;SDS011;38053;53.100;6.078;2023-09-30T06:38:03;25.43;;;12.17;;
52043;SDS011;38053;53.100;6.078;2023-09-30T06:40:30;31.33;;;11.85;;
52043;SDS011;38053;53.100;6.078;2023-09-30T06:42:56;28.38;;;13.35;;
52043;SDS011;38053;53.100;6.078;2023-09-30T06:45:24;35.30;;;15.35;;
52043;SDS011;38053;53.100;6.078;2023-09-30T06:47:49;31.92;;;13.88;;
52043;SDS011;38053;53.100;6.078;2023-09-30T06:50:15;37.60;;;14.50;;
52043;SDS011;38053;53.100;6.078;2023-09-30T06:52:42;36.22;;;15.05;;
52043;SDS011;38053;53.100;6.078;2023-09-30T06:55:14;31.98;;;14.63;;
52043;SDS011;38053;53.100;6.078;2023-09-30T06:57:41;36.13;;;14.45;;
52043;SDS011;38053;53.100;6.078;2023-09-30T07:00:07;35.33;;;14.32;;
52043;SDS011;38053;53.100;6.078;2023-09-30T07:02:35;31.02;;;15.27;;
52043;SDS011;38053;53.100;6.078;2023-09-30T07:05:05;29.95;;;15.10;;
52043;SDS011;38053;53.100;6.078;2023-09-30T07:07:34;31.20;;;17.90;;
52043;SDS011;38053;53.100;6.078;2023-09-30T07:10:00;28.48;;;15.75;;
52043;SDS011;38053;53.100;6.078;2023-09-30T07:12:29;31.05;;;13.80;;
52043;SDS011;38053;53.100;6.078;2023-09-30T07:14:58;30.55;;;16.00;;
52043;SDS011;38053;53.100;6.078;2023-09-30T07:17:25;41.38;;;16.73;;
52043;SDS011;38053;53.100;6.078;2023-09-30T07:19:51;30.95;;;15.05;;
52043;SDS011;38053;53.100;6.078;2023-09-30T07:22:16;40.13;;;17.23;;
52043;SDS011;38053;53.100;6.078;2023-09-30T07:24:42;26.77;;;14.85;;
52043;SDS011;38053;53.100;6.078;2023-09-30T07:27:08;27.90;;;15.60;;
52043;SDS011;38053;53.100;6.078;2023-09-30T07:29:34;30.90;;;15.48;;
52043;SDS011;38053;53.100;6.078;2023-09-30T07:31:59;33.45;;;16.20;;
52043;SDS011;38053;53.100;6.078;2023-09-30T07:34:25;31.88;;;16.15;;
52043;SDS011;38053;53.100;6.078;2023-09-30T07:36:51;37.53;;;15.93;;
52043;SDS011;38053;53.100;6.078;2023-09-30T07:39:17;27.00;;;15.13;;
52043;SDS011;38053;53.100;6.078;2023-09-30T07:41:43;32.60;;;15.60;;
52043;SDS011;38053;53.100;6.078;2023-09-30T07:44:08;34.00;;;16.25;;
52043;SDS011;38053;53.100;6.078;2023-09-30T07:46:34;28.38;;;14.18;;
52043;SDS011;38053;53.100;6.078;2023-09-30T07:49:01;25.73;;;14.80;;
52043;SDS011;38053;53.100;6.078;2023-09-30T07:51:31;29.08;;;14.80;;
52043;SDS011;38053;53.100;6.078;2023-09-30T07:53:57;25.38;;;14.50;;
52043;SDS011;38053;53.100;6.078;2023-09-30T07:56:23;31.38;;;13.90;;
52043;SDS011;38053;53.100;6.078;2023-09-30T07:58:49;27.50;;;13.63;;
52043;SDS011;38053;53.100;6.078;2023-09-30T08:01:14;30.00;;;13.95;;
52043;SDS011;38053;53.100;6.078;2023-09-30T08:03:40;24.27;;;13.60;;
52043;SDS011;38053;53.100;6.078;2023-09-30T08:06:09;29.65;;;14.25;;
52043;SDS011;38053;53.100;6.078;2023-09-30T08:08:38;31.58;;;14.55;;
52043;SDS011;38053;53.100;6.078;2023-09-30T08:11:05;25.73;;;12.98;;
52043;SDS011;38053;53.100;6.078;2023-09-30T08:13:31;22.75;;;12.27;;
52043;SDS011;38053;53.100;6.078;2023-09-30T08:16:01;28.50;;;12.38;;
52043;SDS011;38053;53.100;6.078;2023-09-30T08:18:28;29.80;;;13.50;;
52043;SDS011;38053;53.100;6.078;2023-09-30T08:20:53;24.17;;;10.77;;
52043;SDS011;38053;53.100;6.078;2023-09-30T08:23:20;27.77;;;12.98;;
52043;SDS011;38053;53.100;6.078;2023-09-30T08:25:47;22.52;;;12.07;;
52043;SDS011;38053;53.100;6.078;2023-09-30T08:28:13;27.35;;;12.30;;
52043;SDS011;38053;53.100;6.078;2023-09-30T08:30:39;21.27;;;10.75;;
52043;SDS011;38053;53.100;6.078;2023-09-30T08:33:05;28.88;;;12.40;;
52043;SDS011;38053;53.100;6.078;2023-09-30T08:35:36;29.27;;;10.88;;
52043;SDS011;38053;53.100;6.078;2023-09-30T08:40:29;21.73;;;10.88;;
52043;SDS011;38053;53.100;6.078;2023-09-30T08:42:55;25.90;;;10.63;;
52043;SDS011;38053;53.100;6.078;2023-09-30T08:45:20;26.30;;;9.77;;
52043;SDS011;38053;53.100;6.078;2023-09-30T08:47:46;18.00;;;9.18;;
52043;SDS011;38053;53.100;6.078;2023-09-30T08:50:12;22.58;;;10.27;;
52043;SDS011;38053;53.100;6.078;2023-09-30T08:52:43;22.05;;;10.05;;
52043;SDS011;38053;53.100;6.078;2023-09-30T08:55:13;24.13;;;8.70;;
52043;SDS011;38053;53.100;6.078;2023-09-30T08:57:39;22.08;;;8.88;;
52043;SDS011;38053;53.100;6.078;2023-09-30T09:00:10;18.52;;;9.50;;
52043;SDS011;38053;53.100;6.078;2023-09-30T09:02:40;23.63;;;8.40;;
52043;SDS011;38053;53.100;6.078;2023-09-30T09:05:07;18.10;;;7.65;;
52043;SDS011;38053;53.100;6.078;2023-09-30T09:07:35;17.85;;;7.35;;
52043;SDS011;38053;53.100;6.078;2023-09-30T09:10:07;14.95;;;6.05;;
52043;SDS011;38053;53.100;6.078;2023-09-30T09:12:39;20.42;;;6.60;;
52043;SDS011;38053;53.100;6.078;2023-09-30T09:15:05;22.40;;;6.07;;
52043;SDS011;38053;53.100;6.078;2023-09-30T09:17:39;11.07;;;4.97;;
52043;SDS011;38053;53.100;6.078;2023-09-30T09:20:10;18.60;;;6.35;;
52043;SDS011;38053;53.100;6.078;2023-09-30T09:22:38;13.00;;;5.80;;
52043;SDS011;38053;53.100;6.078;2023-09-30T09:25:04;20.58;;;5.80;;
52043;SDS011;38053;53.100;6.078;2023-09-30T09:27:35;20.95;;;5.82;;
52043;SDS011;38053;53.100;6.078;2023-09-30T09:30:15;17.13;;;6.07;;
52043;SDS011;38053;53.100;6.078;2023-09-30T09:33:31;17.13;;;4.93;;
52043;SDS011;38053;53.100;6.078;2023-09-30T09:35:33;17.50;;;4.80;;
52043;SDS011;38053;53.100;6.078;2023-09-30T09:38:06;24.25;;;5.30;;
52043;SDS011;38053;53.100;6.078;2023-09-30T09:40:36;14.00;;;3.60;;
52043;SDS011;38053;53.100;6.078;2023-09-30T09:43:05;17.08;;;4.45;;
52043;SDS011;38053;53.100;6.078;2023-09-30T09:45:32;14.07;;;3.42;;
52043;SDS011;38053;53.100;6.078;2023-09-30T09:48:00;17.50;;;3.90;;
52043;SDS011;38053;53.100;6.078;2023-09-30T09:50:26;15.27;;;3.95;;
52043;SDS011;38053;53.100;6.078;2023-09-30T09:52:52;14.93;;;3.00;;
52043;SDS011;38053;53.100;6.078;2023-09-30T09:55:23;17.17;;;3.65;;
52043;SDS011;38053;53.100;6.078;2023-09-30T09:57:50;13.27;;;3.45;;
52043;SDS011;38053;53.100;6.078;2023-09-30T10:00:17;15.98;;;3.40;;
52043;SDS011;38053;53.100;6.078;2023-09-30T10:02:44;16.05;;;3.58;;
52043;SDS011;38053;53.100;6.078;2023-09-30T10:05:14;12.82;;;3.10;;
52043;SDS011;38053;53.100;6.078;2023-09-30T10:07:51;17.20;;;3.53;;
52043;SDS011;38053;53.100;6.078;2023-09-30T10:10:31;11.32;;;2.45;;
52043;SDS011;38053;53.100;6.078;2023-09-30T10:13:01;18.48;;;4.72;;
52043;SDS011;38053;53.100;6.078;2023-09-30T10:18:13;10.20;;;2.42;;
52043;SDS011;38053;53.100;6.078;2023-09-30T10:20:41;8.30;;;2.10;;
52043;SDS011;38053;53.100;6.078;2023-09-30T10:25:46;18.85;;;4.20;;
52043;SDS011;38053;53.100;6.078;2023-09-30T10:31:10;23.20;;;5.05;;
52043;SDS011;38053;53.100;6.078;2023-09-30T10:39:03;15.95;;;2.38;;
52043;SDS011;38053;53.100;6.078;2023-09-30T10:47:00;8.77;;;2.22;;
52043;SDS011;38053;53.100;6.078;2023-09-30T10:49:45;9.85;;;1.92;;
52043;SDS011;38053;53.100;6.078;2023-09-30T10:52:12;11.20;;;2.22;;
52043;SDS011;38053;53.100;6.078;2023-09-30T10:54:47;21.45;;;3.88;;
52043;SDS011;38053;53.100;6.078;2023-09-30T10:57:14;10.38;;;2.88;;
52043;SDS011;38053;53.100;6.078;2023-09-30T11:00:08;12.13;;;3.60;;
52043;SDS011;38053;53.100;6.078;2023-09-30T11:02:51;15.82;;;2.72;;
52043;SDS011;38053;53.100;6.078;2023-09-30T11:05:18;10.55;;;2.22;;
52043;SDS011;38053;53.100;6.078;2023-09-30T11:07:47;12.52;;;2.33;;
52043;SDS011;38053;53.100;6.078;2023-09-30T11:10:17;12.70;;;2.15;;
52043;SDS011;38053;53.100;6.078;2023-09-30T11:12:56;11.10;;;2.93;;
52043;SDS011;38053;53.100;6.078;2023-09-30T11:15:22;13.27;;;3.20;;
52043;SDS011;38053;53.100;6.078;2023-09-30T11:17:49;11.50;;;2.40;;
52043;SDS011;38053;53.100;6.078;2023-09-30T11:20:18;8.75;;;1.98;;
52043;SDS011;38053;53.100;6.078;2023-09-30T11:22:44;12.65;;;2.63;;
52043;SDS011;38053;53.100;6.078;2023-09-30T11:25:15;10.48;;;2.65;;
52043;SDS011;38053;53.100;6.078;2023-09-30T11:27:42;12.65;;;2.63;;
52043;SDS011;38053;53.100;6.078;2023-09-30T11:30:08;14.20;;;3.38;;
52043;SDS011;38053;53.100;6.078;2023-09-30T11:32:35;25.40;;;3.53;;
52043;SDS011;38053;53.100;6.078;2023-09-30T11:35:01;9.27;;;2.17;;
52043;SDS011;38053;53.100;6.078;2023-09-30T11:37:31;11.43;;;3.08;;
52043;SDS011;38053;53.100;6.078;2023-09-30T11:40:13;10.93;;;2.45;;
52043;SDS011;38053;53.100;6.078;2023-09-30T11:42:39;10.77;;;2.33;;
52043;SDS011;38053;53.100;6.078;2023-09-30T11:45:19;9.95;;;2.70;;
52043;SDS011;38053;53.100;6.078;2023-09-30T11:47:48;11.55;;;2.47;;
52043;SDS011;38053;53.100;6.078;2023-09-30T11:50:14;6.35;;;1.98;;
52043;SDS011;38053;53.100;6.078;2023-09-30T11:52:44;9.50;;;2.63;;
52043;SDS011;38053;53.100;6.078;2023-09-30T11:55:11;8.45;;;2.22;;
52043;SDS011;38053;53.100;6.078;2023-09-30T11:57:38;11.35;;;2.47;;
52043;SDS011;38053;53.100;6.078;2023-09-30T12:00:04;8.27;;;2.50;;
52043;SDS011;38053;53.100;6.078;2023-09-30T12:02:38;12.32;;;3.22;;
52043;SDS011;38053;53.100;6.078;2023-09-30T12:05:05;10.63;;;2.55;;
52043;SDS011;38053;53.100;6.078;2023-09-30T12:07:36;6.15;;;2.25;;
52043;SDS011;38053;53.100;6.078;2023-09-30T12:10:09;7.55;;;1.80;;
52043;SDS011;38053;53.100;6.078;2023-09-30T12:12:35;7.82;;;2.75;;
52043;SDS011;38053;53.100;6.078;2023-09-30T12:15:01;7.28;;;2.15;;
52043;SDS011;38053;53.100;6.078;2023-09-30T12:17:28;9.82;;;2.05;;
52043;SDS011;38053;53.100;6.078;2023-09-30T12:19:55;13.20;;;2.47;;
52043;SDS011;38053;53.100;6.078;2023-09-30T12:22:22;10.63;;;2.33;;
52043;SDS011;38053;53.100;6.078;2023-09-30T12:24:50;9.60;;;2.33;;
52043;SDS011;38053;53.100;6.078;2023-09-30T12:27:17;9.43;;;2.33;;
52043;SDS011;38053;53.100;6.078;2023-09-30T12:29:45;32.67;;;3.88;;
52043;SDS011;38053;53.100;6.078;2023-09-30T12:32:13;10.80;;;3.45;;
52043;SDS011;38053;53.100;6.078;2023-09-30T12:34:39;10.63;;;2.83;;
52043;SDS011;38053;53.100;6.078;2023-09-30T12:37:05;8.07;;;2.35;;
52043;SDS011;38053;53.100;6.078;2023-09-30T12:39:35;9.55;;;2.90;;
52043;SDS011;38053;53.100;6.078;2023-09-30T12:42:01;13.73;;;2.30;;
52043;SDS011;38053;53.100;6.078;2023-09-30T12:44:33;8.77;;;1.88;;
52043;SDS011;38053;53.100;6.078;2023-09-30T12:46:59;14.52;;;2.67;;
52043;SDS011;38053;53.100;6.078;2023-09-30T12:49:25;8.93;;;2.22;;
52043;SDS011;38053;53.100;6.078;2023-09-30T12:51:51;8.98;;;2.65;;
52043;SDS011;38053;53.100;6.078;2023-09-30T12:54:16;11.75;;;2.42;;
52043;SDS011;38053;53.100;6.078;2023-09-30T12:56:43;10.20;;;2.53;;
52043;SDS011;38053;53.100;6.078;2023-09-30T12:59:12;10.93;;;2.83;;
52043;SDS011;38053;53.100;6.078;2023-09-30T13:01:37;10.50;;;2.67;;
52043;SDS011;38053;53.100;6.078;2023-09-30T13:04:04;12.88;;;2.80;;
52043;SDS011;38053;53.100;6.078;2023-09-30T13:06:33;10.90;;;2.88;;
52043;SDS011;38053;53.100;6.078;2023-09-30T13:09:00;7.63;;;2.30;;
52043;SDS011;38053;53.100;6.078;2023-09-30T13:11:29;5.85;;;1.95;;
52043;SDS011;38053;53.100;6.078;2023-09-30T13:13:55;11.13;;;2.45;;
52043;SDS011;38053;53.100;6.078;2023-09-30T13:16:21;6.38;;;1.90;;
52043;SDS011;38053;53.100;6.078;2023-09-30T13:18:47;13.45;;;2.75;;
52043;SDS011;38053;53.100;6.078;2023-09-30T13:21:13;11.70;;;2.20;;
52043;SDS011;38053;53.100;6.078;2023-09-30T13:23:42;8.00;;;2.95;;
52043;SDS011;38053;53.100;6.078;2023-09-30T13:26:07;9.23;;;1.98;;
52043;SDS011;38053;53.100;6.078;2023-09-30T13:28:38;13.35;;;2.40;;
52043;SDS011;38053;53.100;6.078;2023-09-30T13:31:04;7.90;;;2.42;;
52043;SDS011;38053;53.100;6.078;2023-09-30T13:33:30;10.52;;;2.35;;
52043;SDS011;38053;53.100;6.078;2023-09-30T13:35:59;9.95;;;2.90;;
52043;SDS011;38053;53.100;6.078;2023-09-30T13:38:25;9.15;;;2.22;;
52043;SDS011;38053;53.100;6.078;2023-09-30T13:40:51;6.70;;;2.50;;
52043;SDS011;38053;53.100;6.078;2023-09-30T13:43:17;8.27;;;2.08;;
52043;SDS011;38053;53.100;6.078;2023-09-30T13:45:42;8.07;;;2.65;;
52043;SDS011;38053;53.100;6.078;2023-09-30T13:48:08;11.55;;;3.15;;
52043;SDS011;38053;53.100;6.078;2023-09-30T13:50:34;7.45;;;2.40;;
52043;SDS011;38053;53.100;6.078;2023-09-30T13:53:00;12.63;;;3.03;;
52043;SDS011;38053;53.100;6.078;2023-09-30T13:55:27;7.38;;;2.30;;
52043;SDS011;38053;53.100;6.078;2023-09-30T13:57:53;10.60;;;3.28;;
52043;SDS011;38053;53.100;6.078;2023-09-30T14:00:18;11.55;;;2.53;;
52043;SDS011;38053;53.100;6.078;2023-09-30T14:02:44;11.23;;;2.70;;
52043;SDS011;38053;53.100;6.078;2023-09-30T14:05:10;6.55;;;1.95;;
52043;SDS011;38053;53.100;6.078;2023-09-30T14:07:36;10.07;;;2.45;;
52043;SDS011;38053;53.100;6.078;2023-09-30T14:10:03;10.68;;;2.67;;
52043;SDS011;38053;53.100;6.078;2023-09-30T14:12:30;16.23;;;3.58;;
52043;SDS011;38053;53.100;6.078;2023-09-30T14:14:56;10.40;;;3.30;;
52043;SDS011;38053;53.100;6.078;2023-09-30T14:17:23;12.75;;;2.38;;
52043;SDS011;38053;53.100;6.078;2023-09-30T14:19:50;11.90;;;2.53;;
52043;SDS011;38053;53.100;6.078;2023-09-30T14:22:16;8.35;;;2.25;;
52043;SDS011;38053;53.100;6.078;2023-09-30T14:24:48;13.05;;;2.60;;
52043;SDS011;38053;53.100;6.078;2023-09-30T14:27:14;8.18;;;2.55;;
52043;SDS011;38053;53.100;6.078;2023-09-30T14:29:40;8.20;;;2.10;;
52043;SDS011;38053;53.100;6.078;2023-09-30T14:32:07;10.15;;;2.25;;
52043;SDS011;38053;53.100;6.078;2023-09-30T14:34:32;11.18;;;2.45;;
52043;SDS011;38053;53.100;6.078;2023-09-30T14:36:58;13.70;;;3.50;;
52043;SDS011;38053;53.100;6.078;2023-09-30T14:39:24;7.43;;;2.72;;
52043;SDS011;38053;53.100;6.078;2023-09-30T14:41:49;9.70;;;2.63;;
52043;SDS011;38053;53.100;6.078;2023-09-30T14:44:15;12.85;;;2.67;;
52043;SDS011;38053;53.100;6.078;2023-09-30T14:46:42;12.95;;;3.08;;
52043;SDS011;38053;53.100;6.078;2023-09-30T14:49:09;9.75;;;2.25;;
52043;SDS011;38053;53.100;6.078;2023-09-30T14:51:35;12.68;;;3.35;;
52043;SDS011;38053;53.100;6.078;2023-09-30T14:54:02;22.17;;;4.13;;
52043;SDS011;38053;53.100;6.078;2023-09-30T14:56:28;11.98;;;2.72;;
52043;SDS011;38053;53.100;6.078;2023-09-30T14:58:54;10.98;;;2.65;;
52043;SDS011;38053;53.100;6.078;2023-09-30T15:01:20;11.43;;;2.47;;